Scottish Airport Reports

Civil airfields updated at H+20 and H+50
RAF airfields updated at H+50 only

EGPD - Aberdeen
Distance from station: NNE 19mi, 31km
Updated: 16/04/2021 17:20
Clear
Clear
 Wind from SSE
Wind: SSE 18 mph , 30 km/h
Temperature: 9°C
Wind Chill: 5°C
Dew Point: 1°C
Humidity: 58%
Barometer: 1028 hPa
Clouds: Clear
Visibility: 6 miles , 10 km
2021/04/16 16:20 EGPD 161620Z AUTO 16016KT 9999 NCD 09/01 Q1028 NOSIG
EGPN - Dundee
Distance from station: SW 41mi, 66km
Updated: 16/04/2021 17:20
Few Clouds
Few Clouds
 Wind from ESE
Wind: ESE 7 mph , 11 km/h
Temperature: 12°C
Dew Point: 4°C
Humidity: 58%
Barometer: 1028 hPa
Clouds: Few Clouds
Visibility: 6 miles , 10 km
Cloud details: Few Clouds 1219 m
2021/04/16 16:20 EGPN 161620Z 11006KT 9999 FEW040 12/04 Q1028
 
EGQS - RAF Lossiemouth
Distance from station: NNW 63mi, 102km
Updated: 16/04/2021 16:50
Clear
Clear
 Wind from NE
Wind: NE 12 mph , 19 km/h
Temperature: 12°C
Dew Point: 2°C
Humidity: 51%
Barometer: 1027 hPa
Summary: Clear
Visibility: greater than 7 miles , 10 km
2021/04/16 15:50 EGQS 161550Z 04010KT CAVOK 12/02 Q1027 NOSIG RMK BLU BLU
EGPE - Inverness
Distance from station: WNW 73mi, 117km
Updated: 16/04/2021 17:20
Clear
Clear
 Wind from WSW
Wind: WSW 12 mph , 19 km/h
Temperature: 14°C
Dew Point: 1°C
Humidity: 41%
Barometer: 1027 hPa
Summary: Clear
Visibility: greater than 7 miles , 10 km
2021/04/16 16:20 EGPE 161620Z 24010KT CAVOK 14/01 Q1027
 
EGPH - Edinburgh
Distance from station: SSW 77mi, 125km
Updated: 16/04/2021 17:20
Clear
Clear
 Wind from W
Wind: W 8 mph , 13 km/h
Temperature: 14°C
Dew Point: 0°C
Humidity: 39%
Barometer: 1028 hPa
Summary: Clear
Visibility: greater than 7 miles , 10 km
2021/04/16 16:20 EGPH 161620Z 26007KT 210V310 CAVOK 14/M00 Q1028
EGPC - Wick
Distance from station: NNW 107mi, 172km
Updated: 16/04/2021 17:20
Clear
Clear
 Wind from SSE
Wind: SSE 10 mph , 17 km/h
Temperature: 9°C
Wind Chill: 7°C
Dew Point: 6°C
Humidity: 82%
Barometer: 1027 hPa
Clouds: Clear
Visibility: 6 miles , 10 km
2021/04/16 16:20 EGPC 161620Z AUTO 15009KT 9999 NCD 09/06 Q1027
 
EGPF - Glasgow
Distance from station: SW 107mi, 172km
Updated: 16/04/2021 17:20
Clear
Clear
 Wind from SW
Wind: SW 15 mph , 24 km/h
Temperature: 13°C
Dew Point: 0°C
Humidity: 41%
Barometer: 1029 hPa
Clouds: Clear
Visibility: 6 miles , 10 km
2021/04/16 16:20 EGPF 161620Z AUTO 23013KT 180V250 9999 NCD 13/00 Q1029
EGPK - Prestwick
Distance from station: SW 130mi, 209km
Updated: 16/04/2021 17:20
Clear
Clear
 Wind from WSW
Wind: WSW 16 mph , 26 km/h
Temperature: 12°C
Dew Point: 1°C
Humidity: 47%
Barometer: 1029 hPa
Summary: Clear
Visibility: greater than 7 miles , 10 km
2021/04/16 16:20 EGPK 161620Z 25014KT CAVOK 12/01 Q1029
 
EGPA - Kirkwall, Orkney
Distance from station: N 140mi, 225km
Updated: 16/04/2021 17:20
Few Clouds
Few Clouds
 Wind from SSE
Wind: SSE 13 mph , 20 km/h
Temperature: 9°C
Wind Chill: 6°C
Dew Point: 5°C
Humidity: 76%
Barometer: 1027 hPa
Clouds: Few Clouds
Visibility: 6 miles , 10 km
Cloud details: Few Clouds 762 m
2021/04/16 16:20 EGPA 161620Z 15011KT 9999 FEW025 09/05 Q1027
EGPO - Stornoway, Outer Hebrides
Distance from station: WNW 169mi, 273km
Updated: 16/04/2021 17:20
Light rain, Few clouds
Light rain, Few clouds
 Wind from SSW
Wind: SSW 18 mph , 30 km/h
Temperature: 9°C
Wind Chill: 5°C
Dew Point: 3°C
Humidity: 66%
Barometer: 1026 hPa
Summary: Light rain
Clouds: Few Clouds
Visibility: 6 miles , 10 km
Cloud details: Few Clouds 1158 m
2021/04/16 16:20 EGPO 161620Z 20016KT 9999 -RA FEW038 09/03 Q1026
 
EGPI - Islay, Inner Hebrides
Distance from station: WSW 172mi, 276km
Updated: 16/04/2021 17:20
Clear
Clear
 Wind from varies
Wind: varies 17 mph , 28 km/h
Temperature: 10°C
Wind Chill: 7°C
Dew Point: 5°C
Humidity: 71%
Barometer: 1028 hPa
Clouds: Clear
Visibility: 6 miles , 10 km
2021/04/16 16:20 EGPI 161620Z AUTO VRB15KT 9999 NCD 10/05 Q1028
EGPU - Tiree, Inner Hebrides
Distance from station: W 172mi, 276km
Updated: 16/04/2021 17:20
Clear
Clear
 Wind from S
Wind: S 15 mph , 24 km/h
Temperature: 9°C
Wind Chill: 6°C
Dew Point: 5°C
Humidity: 76%
Barometer: 1027 hPa
Clouds: Clear
Visibility: 6 miles , 10 km
2021/04/16 16:20 EGPU 161620Z AUTO 18013KT 9999 NCD 09/05 Q1027
 
EGPB - Sumburgh, Shetland
Distance from station: NNE 208mi, 332km
Updated: 16/04/2021 17:20
Few Clouds
Few Clouds
 Wind from S
Wind: S 15 mph , 24 km/h
Temperature: 8°C
Wind Chill: 4°C
Dew Point: 4°C
Humidity: 76%
Barometer: 1029 hPa
Clouds: Few Clouds
Visibility: 6 miles , 10 km
Cloud details: Few Clouds 427 m
2021/04/16 16:20 EGPB 161620Z 17013KT 9999 FEW014 08/04 Q1029
-->